sensor_id;sensor_type;location;lat;lon;timestamp;P1;durP1;ratioP1;P2;durP2;ratioP2
36009;SDS011;22076;52.182;5.404;2022-12-29T00:01:30;9.23;;;5.47;;
36009;SDS011;22076;52.182;5.404;2022-12-29T00:03:56;9.02;;;5.65;;
36009;SDS011;22076;52.182;5.404;2022-12-29T00:06:23;10.13;;;5.10;;
36009;SDS011;22076;52.182;5.404;2022-12-29T00:08:51;12.23;;;5.43;;
36009;SDS011;22076;52.182;5.404;2022-12-29T00:11:19;8.68;;;4.93;;
36009;SDS011;22076;52.182;5.404;2022-12-29T00:13:47;9.05;;;4.72;;
36009;SDS011;22076;52.182;5.404;2022-12-29T00:16:32;6.47;;;4.60;;
36009;SDS011;22076;52.182;5.404;2022-12-29T00:19:00;7.35;;;4.45;;
36009;SDS011;22076;52.182;5.404;2022-12-29T00:21:27;5.85;;;4.20;;
36009;SDS011;22076;52.182;5.404;2022-12-29T00:24:14;6.78;;;4.78;;
36009;SDS011;22076;52.182;5.404;2022-12-29T00:27:04;6.55;;;4.60;;
36009;SDS011;22076;52.182;5.404;2022-12-29T00:29:53;7.55;;;4.03;;
36009;SDS011;22076;52.182;5.404;2022-12-29T00:32:37;8.00;;;4.70;;
36009;SDS011;22076;52.182;5.404;2022-12-29T00:35:23;8.13;;;4.97;;
36009;SDS011;22076;52.182;5.404;2022-12-29T00:37:52;6.10;;;4.22;;
36009;SDS011;22076;52.182;5.404;2022-12-29T00:40:38;7.35;;;4.60;;
36009;SDS011;22076;52.182;5.404;2022-12-29T00:43:23;6.22;;;3.40;;
36009;SDS011;22076;52.182;5.404;2022-12-29T00:46:07;5.63;;;3.85;;
36009;SDS011;22076;52.182;5.404;2022-12-29T00:48:33;5.47;;;3.58;;
36009;SDS011;22076;52.182;5.404;2022-12-29T00:51:29;6.60;;;4.05;;
36009;SDS011;22076;52.182;5.404;2022-12-29T00:53:56;8.90;;;3.92;;
36009;SDS011;22076;52.182;5.404;2022-12-29T00:56:23;5.93;;;4.38;;
36009;SDS011;22076;52.182;5.404;2022-12-29T00:58:50;6.28;;;4.22;;
36009;SDS011;22076;52.182;5.404;2022-12-29T01:01:17;8.20;;;3.97;;
36009;SDS011;22076;52.182;5.404;2022-12-29T01:03:43;6.88;;;3.45;;
36009;SDS011;22076;52.182;5.404;2022-12-29T01:06:10;7.22;;;3.92;;
36009;SDS011;22076;52.182;5.404;2022-12-29T01:08:37;6.50;;;3.38;;
36009;SDS011;22076;52.182;5.404;2022-12-29T01:11:04;5.40;;;3.47;;
36009;SDS011;22076;52.182;5.404;2022-12-29T01:13:32;8.30;;;3.38;;
36009;SDS011;22076;52.182;5.404;2022-12-29T01:15:59;6.95;;;3.33;;
36009;SDS011;22076;52.182;5.404;2022-12-29T01:18:26;5.10;;;3.08;;
36009;SDS011;22076;52.182;5.404;2022-12-29T01:20:57;5.90;;;3.35;;
36009;SDS011;22076;52.182;5.404;2022-12-29T01:23:25;4.32;;;3.00;;
36009;SDS011;22076;52.182;5.404;2022-12-29T01:25:51;6.15;;;2.53;;
36009;SDS011;22076;52.182;5.404;2022-12-29T01:28:18;3.85;;;2.58;;
36009;SDS011;22076;52.182;5.404;2022-12-29T01:30:46;8.68;;;2.90;;
36009;SDS011;22076;52.182;5.404;2022-12-29T01:33:12;4.85;;;2.78;;
36009;SDS011;22076;52.182;5.404;2022-12-29T01:35:39;6.90;;;2.92;;
36009;SDS011;22076;52.182;5.404;2022-12-29T01:38:05;4.30;;;2.72;;
36009;SDS011;22076;52.182;5.404;2022-12-29T01:40:32;4.63;;;2.70;;
36009;SDS011;22076;52.182;5.404;2022-12-29T01:42:59;3.58;;;2.10;;
36009;SDS011;22076;52.182;5.404;2022-12-29T01:45:26;5.45;;;2.92;;
36009;SDS011;22076;52.182;5.404;2022-12-29T01:47:55;5.57;;;2.53;;
36009;SDS011;22076;52.182;5.404;2022-12-29T01:50:25;6.88;;;3.30;;
36009;SDS011;22076;52.182;5.404;2022-12-29T01:52:54;4.68;;;2.45;;
36009;SDS011;22076;52.182;5.404;2022-12-29T01:55:22;2.92;;;2.08;;
36009;SDS011;22076;52.182;5.404;2022-12-29T01:57:50;3.85;;;2.40;;
36009;SDS011;22076;52.182;5.404;2022-12-29T02:00:17;3.85;;;2.35;;
36009;SDS011;22076;52.182;5.404;2022-12-29T02:02:45;3.75;;;2.72;;
36009;SDS011;22076;52.182;5.404;2022-12-29T02:05:16;3.40;;;2.40;;
36009;SDS011;22076;52.182;5.404;2022-12-29T02:07:46;4.63;;;2.15;;
36009;SDS011;22076;52.182;5.404;2022-12-29T02:10:14;4.47;;;2.30;;
36009;SDS011;22076;52.182;5.404;2022-12-29T02:12:41;3.75;;;2.47;;
36009;SDS011;22076;52.182;5.404;2022-12-29T02:15:08;5.32;;;2.58;;
36009;SDS011;22076;52.182;5.404;2022-12-29T02:17:51;4.05;;;2.50;;
36009;SDS011;22076;52.182;5.404;2022-12-29T02:23:42;5.03;;;2.42;;
36009;SDS011;22076;52.182;5.404;2022-12-29T02:26:24;3.55;;;2.70;;
36009;SDS011;22076;52.182;5.404;2022-12-29T02:29:06;4.72;;;2.75;;
36009;SDS011;22076;52.182;5.404;2022-12-29T02:31:45;3.38;;;2.22;;
36009;SDS011;22076;52.182;5.404;2022-12-29T02:34:20;2.77;;;2.20;;
36009;SDS011;22076;52.182;5.404;2022-12-29T02:36:51;4.15;;;2.50;;
36009;SDS011;22076;52.182;5.404;2022-12-29T02:39:27;6.50;;;2.35;;
36009;SDS011;22076;52.182;5.404;2022-12-29T02:42:03;3.47;;;2.05;;
36009;SDS011;22076;52.182;5.404;2022-12-29T02:44:34;5.07;;;2.20;;
36009;SDS011;22076;52.182;5.404;2022-12-29T02:47:05;6.07;;;2.03;;
36009;SDS011;22076;52.182;5.404;2022-12-29T02:49:36;3.70;;;1.42;;
36009;SDS011;22076;52.182;5.404;2022-12-29T02:52:05;2.85;;;1.30;;
36009;SDS011;22076;52.182;5.404;2022-12-29T02:54:33;4.47;;;1.77;;
36009;SDS011;22076;52.182;5.404;2022-12-29T02:59:35;4.00;;;1.80;;
36009;SDS011;22076;52.182;5.404;2022-12-29T03:02:11;4.15;;;1.75;;
36009;SDS011;22076;52.182;5.404;2022-12-29T03:04:49;5.07;;;1.23;;
36009;SDS011;22076;52.182;5.404;2022-12-29T03:07:22;4.22;;;1.33;;
36009;SDS011;22076;52.182;5.404;2022-12-29T03:09:52;5.22;;;1.08;;
36009;SDS011;22076;52.182;5.404;2022-12-29T03:12:24;2.85;;;0.70;;
36009;SDS011;22076;52.182;5.404;2022-12-29T03:15:15;2.80;;;0.93;;
36009;SDS011;22076;52.182;5.404;2022-12-29T03:18:05;2.10;;;0.95;;
36009;SDS011;22076;52.182;5.404;2022-12-29T03:20:35;3.65;;;1.08;;
36009;SDS011;22076;52.182;5.404;2022-12-29T03:23:04;3.90;;;1.05;;
36009;SDS011;22076;52.182;5.404;2022-12-29T03:25:33;1.85;;;1.08;;
36009;SDS011;22076;52.182;5.404;2022-12-29T03:28:02;3.47;;;1.13;;
36009;SDS011;22076;52.182;5.404;2022-12-29T03:30:31;3.03;;;1.10;;
36009;SDS011;22076;52.182;5.404;2022-12-29T03:32:59;7.38;;;1.25;;
36009;SDS011;22076;52.182;5.404;2022-12-29T03:35:29;9.52;;;1.55;;
36009;SDS011;22076;52.182;5.404;2022-12-29T03:37:58;4.88;;;0.95;;
36009;SDS011;22076;52.182;5.404;2022-12-29T03:40:27;6.28;;;1.15;;
36009;SDS011;22076;52.182;5.404;2022-12-29T03:42:54;2.70;;;0.93;;
36009;SDS011;22076;52.182;5.404;2022-12-29T03:45:21;4.82;;;1.13;;
36009;SDS011;22076;52.182;5.404;2022-12-29T03:47:49;3.42;;;0.90;;
36009;SDS011;22076;52.182;5.404;2022-12-29T03:50:16;3.75;;;1.20;;
36009;SDS011;22076;52.182;5.404;2022-12-29T03:52:44;4.05;;;1.30;;
36009;SDS011;22076;52.182;5.404;2022-12-29T03:55:11;4.72;;;1.50;;
36009;SDS011;22076;52.182;5.404;2022-12-29T03:57:38;5.35;;;1.25;;
36009;SDS011;22076;52.182;5.404;2022-12-29T04:00:05;5.18;;;1.40;;
36009;SDS011;22076;52.182;5.404;2022-12-29T04:02:33;6.43;;;1.27;;
36009;SDS011;22076;52.182;5.404;2022-12-29T04:04:59;4.40;;;1.40;;
36009;SDS011;22076;52.182;5.404;2022-12-29T04:07:26;2.22;;;1.48;;
36009;SDS011;22076;52.182;5.404;2022-12-29T04:09:54;2.63;;;1.10;;
36009;SDS011;22076;52.182;5.404;2022-12-29T04:12:20;6.30;;;1.73;;
36009;SDS011;22076;52.182;5.404;2022-12-29T04:14:47;5.72;;;1.60;;
36009;SDS011;22076;52.182;5.404;2022-12-29T04:17:13;3.30;;;1.60;;
36009;SDS011;22076;52.182;5.404;2022-12-29T04:19:40;4.90;;;1.58;;
36009;SDS011;22076;52.182;5.404;2022-12-29T04:22:06;8.05;;;1.90;;
36009;SDS011;22076;52.182;5.404;2022-12-29T04:24:33;4.22;;;1.70;;
36009;SDS011;22076;52.182;5.404;2022-12-29T04:27:01;4.63;;;1.15;;
36009;SDS011;22076;52.182;5.404;2022-12-29T04:29:27;3.03;;;1.73;;
36009;SDS011;22076;52.182;5.404;2022-12-29T04:31:54;4.10;;;1.10;;
36009;SDS011;22076;52.182;5.404;2022-12-29T04:34:20;5.57;;;1.60;;
36009;SDS011;22076;52.182;5.404;2022-12-29T04:36:47;4.97;;;1.60;;
36009;SDS011;22076;52.182;5.404;2022-12-29T04:39:13;3.50;;;1.30;;
36009;SDS011;22076;52.182;5.404;2022-12-29T04:41:40;7.00;;;1.70;;
36009;SDS011;22076;52.182;5.404;2022-12-29T04:44:08;8.25;;;1.85;;
36009;SDS011;22076;52.182;5.404;2022-12-29T04:46:34;9.07;;;1.70;;
36009;SDS011;22076;52.182;5.404;2022-12-29T04:49:01;6.57;;;2.00;;
36009;SDS011;22076;52.182;5.404;2022-12-29T04:51:33;6.53;;;1.67;;
36009;SDS011;22076;52.182;5.404;2022-12-29T04:54:00;5.38;;;1.00;;
36009;SDS011;22076;52.182;5.404;2022-12-29T04:56:26;4.15;;;1.15;;
36009;SDS011;22076;52.182;5.404;2022-12-29T04:58:53;3.30;;;1.27;;
36009;SDS011;22076;52.182;5.404;2022-12-29T05:01:21;13.57;;;1.77;;
36009;SDS011;22076;52.182;5.404;2022-12-29T05:03:49;8.48;;;1.42;;
36009;SDS011;22076;52.182;5.404;2022-12-29T05:06:16;7.35;;;1.73;;
36009;SDS011;22076;52.182;5.404;2022-12-29T05:08:42;5.22;;;1.45;;
36009;SDS011;22076;52.182;5.404;2022-12-29T05:11:09;4.13;;;1.25;;
36009;SDS011;22076;52.182;5.404;2022-12-29T05:13:35;5.03;;;1.48;;
36009;SDS011;22076;52.182;5.404;2022-12-29T05:16:02;4.93;;;1.38;;
36009;SDS011;22076;52.182;5.404;2022-12-29T05:18:30;5.57;;;1.50;;
36009;SDS011;22076;52.182;5.404;2022-12-29T05:20:56;7.55;;;1.80;;
36009;SDS011;22076;52.182;5.404;2022-12-29T05:23:23;11.82;;;1.58;;
36009;SDS011;22076;52.182;5.404;2022-12-29T05:25:49;6.20;;;1.45;;
36009;SDS011;22076;52.182;5.404;2022-12-29T05:28:16;10.43;;;1.50;;
36009;SDS011;22076;52.182;5.404;2022-12-29T05:30:43;13.98;;;2.53;;
36009;SDS011;22076;52.182;5.404;2022-12-29T05:33:09;11.18;;;1.73;;
36009;SDS011;22076;52.182;5.404;2022-12-29T05:35:38;15.90;;;2.10;;
36009;SDS011;22076;52.182;5.404;2022-12-29T05:38:05;12.85;;;1.60;;
36009;SDS011;22076;52.182;5.404;2022-12-29T05:40:31;8.18;;;1.45;;
36009;SDS011;22076;52.182;5.404;2022-12-29T05:42:58;17.42;;;2.53;;
36009;SDS011;22076;52.182;5.404;2022-12-29T05:45:24;13.85;;;2.33;;
36009;SDS011;22076;52.182;5.404;2022-12-29T05:47:51;7.38;;;1.30;;
36009;SDS011;22076;52.182;5.404;2022-12-29T05:50:17;12.77;;;1.85;;
36009;SDS011;22076;52.182;5.404;2022-12-29T05:52:45;8.00;;;1.73;;
36009;SDS011;22076;52.182;5.404;2022-12-29T05:55:12;12.02;;;2.97;;
36009;SDS011;22076;52.182;5.404;2022-12-29T05:57:39;10.45;;;2.22;;
36009;SDS011;22076;52.182;5.404;2022-12-29T06:00:06;13.40;;;2.03;;
36009;SDS011;22076;52.182;5.404;2022-12-29T06:02:33;16.17;;;2.58;;
36009;SDS011;22076;52.182;5.404;2022-12-29T06:05:00;8.77;;;1.80;;
36009;SDS011;22076;52.182;5.404;2022-12-29T06:07:27;13.25;;;1.42;;
36009;SDS011;22076;52.182;5.404;2022-12-29T06:09:55;14.80;;;1.88;;
36009;SDS011;22076;52.182;5.404;2022-12-29T06:12:22;5.85;;;1.30;;
36009;SDS011;22076;52.182;5.404;2022-12-29T06:14:48;7.75;;;2.15;;
36009;SDS011;22076;52.182;5.404;2022-12-29T06:17:15;11.82;;;1.70;;
36009;SDS011;22076;52.182;5.404;2022-12-29T06:19:41;7.72;;;1.63;;
36009;SDS011;22076;52.182;5.404;2022-12-29T06:22:08;9.85;;;1.90;;
36009;SDS011;22076;52.182;5.404;2022-12-29T06:24:37;12.02;;;1.85;;
36009;SDS011;22076;52.182;5.404;2022-12-29T06:27:05;11.95;;;2.30;;
36009;SDS011;22076;52.182;5.404;2022-12-29T06:29:32;11.27;;;1.63;;
36009;SDS011;22076;52.182;5.404;2022-12-29T06:32:00;7.53;;;1.92;;
36009;SDS011;22076;52.182;5.404;2022-12-29T06:34:26;11.88;;;1.73;;
36009;SDS011;22076;52.182;5.404;2022-12-29T06:36:53;14.75;;;1.77;;
36009;SDS011;22076;52.182;5.404;2022-12-29T06:39:19;8.45;;;1.98;;
36009;SDS011;22076;52.182;5.404;2022-12-29T06:41:46;11.20;;;2.25;;
36009;SDS011;22076;52.182;5.404;2022-12-29T06:44:14;12.73;;;1.95;;
36009;SDS011;22076;52.182;5.404;2022-12-29T06:46:40;15.10;;;2.20;;
36009;SDS011;22076;52.182;5.404;2022-12-29T06:49:07;7.43;;;2.15;;
36009;SDS011;22076;52.182;5.404;2022-12-29T06:51:34;12.38;;;2.00;;
36009;SDS011;22076;52.182;5.404;2022-12-29T06:54:00;6.20;;;1.27;;
36009;SDS011;22076;52.182;5.404;2022-12-29T06:56:27;17.92;;;2.53;;
36009;SDS011;22076;52.182;5.404;2022-12-29T06:58:54;13.65;;;2.22;;
36009;SDS011;22076;52.182;5.404;2022-12-29T07:01:22;11.27;;;2.15;;
36009;SDS011;22076;52.182;5.404;2022-12-29T07:03:48;9.57;;;1.98;;
36009;SDS011;22076;52.182;5.404;2022-12-29T07:06:15;17.83;;;2.97;;
36009;SDS011;22076;52.182;5.404;2022-12-29T07:08:41;6.60;;;2.35;;
36009;SDS011;22076;52.182;5.404;2022-12-29T07:11:08;8.15;;;1.15;;
36009;SDS011;22076;52.182;5.404;2022-12-29T07:13:35;7.72;;;1.60;;
36009;SDS011;22076;52.182;5.404;2022-12-29T07:16:04;14.25;;;2.47;;
36009;SDS011;22076;52.182;5.404;2022-12-29T07:18:33;16.17;;;2.42;;
36009;SDS011;22076;52.182;5.404;2022-12-29T07:20:59;16.10;;;2.53;;
36009;SDS011;22076;52.182;5.404;2022-12-29T07:23:26;11.70;;;2.22;;
36009;SDS011;22076;52.182;5.404;2022-12-29T07:25:58;7.90;;;1.80;;
36009;SDS011;22076;52.182;5.404;2022-12-29T07:28:25;12.48;;;1.80;;
36009;SDS011;22076;52.182;5.404;2022-12-29T07:30:52;9.07;;;1.75;;
36009;SDS011;22076;52.182;5.404;2022-12-29T07:33:18;7.22;;;1.70;;
36009;SDS011;22076;52.182;5.404;2022-12-29T07:35:46;7.18;;;1.40;;
36009;SDS011;22076;52.182;5.404;2022-12-29T07:38:13;5.20;;;1.60;;
36009;SDS011;22076;52.182;5.404;2022-12-29T07:40:39;6.07;;;2.10;;
36009;SDS011;22076;52.182;5.404;2022-12-29T07:43:06;5.22;;;1.02;;
36009;SDS011;22076;52.182;5.404;2022-12-29T07:45:32;7.97;;;1.45;;
36009;SDS011;22076;52.182;5.404;2022-12-29T07:47:59;6.35;;;1.50;;
36009;SDS011;22076;52.182;5.404;2022-12-29T07:50:27;15.32;;;2.30;;
36009;SDS011;22076;52.182;5.404;2022-12-29T07:52:55;6.43;;;1.55;;
36009;SDS011;22076;52.182;5.404;2022-12-29T07:55:21;5.03;;;1.38;;
36009;SDS011;22076;52.182;5.404;2022-12-29T07:57:48;9.18;;;1.95;;
36009;SDS011;22076;52.182;5.404;2022-12-29T08:00:15;9.80;;;1.88;;
36009;SDS011;22076;52.182;5.404;2022-12-29T08:02:41;5.93;;;2.05;;
36009;SDS011;22076;52.182;5.404;2022-12-29T08:05:08;13.93;;;2.67;;
36009;SDS011;22076;52.182;5.404;2022-12-29T08:07:34;15.15;;;2.63;;
36009;SDS011;22076;52.182;5.404;2022-12-29T08:10:03;11.02;;;2.05;;
36009;SDS011;22076;52.182;5.404;2022-12-29T08:12:30;8.25;;;2.05;;
36009;SDS011;22076;52.182;5.404;2022-12-29T08:14:56;3.10;;;1.23;;
36009;SDS011;22076;52.182;5.404;2022-12-29T08:17:23;9.55;;;2.25;;
36009;SDS011;22076;52.182;5.404;2022-12-29T08:19:49;7.85;;;1.83;;
36009;SDS011;22076;52.182;5.404;2022-12-29T08:22:16;14.90;;;2.88;;
36009;SDS011;22076;52.182;5.404;2022-12-29T08:24:42;8.75;;;2.70;;
36009;SDS011;22076;52.182;5.404;2022-12-29T08:27:10;15.55;;;2.75;;
36009;SDS011;22076;52.182;5.404;2022-12-29T08:29:37;13.15;;;2.05;;
36009;SDS011;22076;52.182;5.404;2022-12-29T08:32:03;19.15;;;2.75;;
36009;SDS011;22076;52.182;5.404;2022-12-29T08:34:30;11.48;;;2.28;;
36009;SDS011;22076;52.182;5.404;2022-12-29T08:36:56;20.88;;;2.72;;
36009;SDS011;22076;52.182;5.404;2022-12-29T08:39:23;9.57;;;2.28;;
36009;SDS011;22076;52.182;5.404;2022-12-29T08:41:50;11.60;;;2.35;;
36009;SDS011;22076;52.182;5.404;2022-12-29T08:44:18;12.77;;;2.17;;
36009;SDS011;22076;52.182;5.404;2022-12-29T08:46:44;2.40;;;1.42;;
36009;SDS011;22076;52.182;5.404;2022-12-29T08:49:11;14.65;;;2.15;;
36009;SDS011;22076;52.182;5.404;2022-12-29T08:51:37;13.68;;;2.20;;
36009;SDS011;22076;52.182;5.404;2022-12-29T08:54:04;15.90;;;2.67;;
36009;SDS011;22076;52.182;5.404;2022-12-29T08:56:30;14.02;;;2.72;;
36009;SDS011;22076;52.182;5.404;2022-12-29T08:58:57;6.70;;;1.55;;
36009;SDS011;22076;52.182;5.404;2022-12-29T09:01:25;17.25;;;2.95;;
36009;SDS011;22076;52.182;5.404;2022-12-29T09:03:52;10.68;;;2.17;;
36009;SDS011;22076;52.182;5.404;2022-12-29T09:06:19;7.05;;;2.25;;
36009;SDS011;22076;52.182;5.404;2022-12-29T09:08:46;11.25;;;2.08;;
36009;SDS011;22076;52.182;5.404;2022-12-29T09:11:16;11.65;;;2.13;;
36009;SDS011;22076;52.182;5.404;2022-12-29T09:13:44;12.77;;;1.90;;
36009;SDS011;22076;52.182;5.404;2022-12-29T09:16:10;17.52;;;2.50;;
36009;SDS011;22076;52.182;5.404;2022-12-29T09:18:39;12.15;;;1.88;;
36009;SDS011;22076;52.182;5.404;2022-12-29T09:21:06;15.38;;;3.22;;
36009;SDS011;22076;52.182;5.404;2022-12-29T09:23:33;7.28;;;1.83;;
36009;SDS011;22076;52.182;5.404;2022-12-29T09:26:00;16.02;;;2.60;;
36009;SDS011;22076;52.182;5.404;2022-12-29T09:28:27;13.80;;;2.70;;
36009;SDS011;22076;52.182;5.404;2022-12-29T09:30:54;10.50;;;2.65;;
36009;SDS011;22076;52.182;5.404;2022-12-29T09:33:21;19.63;;;2.92;;
36009;SDS011;22076;52.182;5.404;2022-12-29T09:35:51;16.35;;;2.50;;
36009;SDS011;22076;52.182;5.404;2022-12-29T09:38:18;10.57;;;1.90;;
36009;SDS011;22076;52.182;5.404;2022-12-29T09:40:48;11.65;;;2.08;;
36009;SDS011;22076;52.182;5.404;2022-12-29T09:43:23;11.10;;;1.95;;
36009;SDS011;22076;52.182;5.404;2022-12-29T09:45:57;7.90;;;1.77;;
36009;SDS011;22076;52.182;5.404;2022-12-29T09:48:29;13.52;;;1.90;;
36009;SDS011;22076;52.182;5.404;2022-12-29T09:51:00;12.52;;;3.00;;
36009;SDS011;22076;52.182;5.404;2022-12-29T09:53:29;8.70;;;2.55;;
36009;SDS011;22076;52.182;5.404;2022-12-29T09:55:59;16.58;;;2.95;;
36009;SDS011;22076;52.182;5.404;2022-12-29T09:58:28;7.20;;;1.67;;
36009;SDS011;22076;52.182;5.404;2022-12-29T10:00:58;9.05;;;1.90;;
36009;SDS011;22076;52.182;5.404;2022-12-29T10:03:27;9.98;;;1.85;;
36009;SDS011;22076;52.182;5.404;2022-12-29T10:06:05;12.02;;;2.05;;
36009;SDS011;22076;52.182;5.404;2022-12-29T10:08:37;5.97;;;1.52;;
36009;SDS011;22076;52.182;5.404;2022-12-29T10:11:09;13.02;;;2.08;;
36009;SDS011;22076;52.182;5.404;2022-12-29T10:13:45;10.35;;;2.28;;
36009;SDS011;22076;52.182;5.404;2022-12-29T10:16:25;12.00;;;2.13;;
36009;SDS011;22076;52.182;5.404;2022-12-29T10:19:03;9.38;;;2.03;;
36009;SDS011;22076;52.182;5.404;2022-12-29T10:21:40;12.40;;;2.53;;
36009;SDS011;22076;52.182;5.404;2022-12-29T10:24:14;9.27;;;2.22;;
36009;SDS011;22076;52.182;5.404;2022-12-29T10:26:43;8.85;;;1.83;;
36009;SDS011;22076;52.182;5.404;2022-12-29T10:29:13;12.13;;;2.45;;
36009;SDS011;22076;52.182;5.404;2022-12-29T10:31:43;10.43;;;2.38;;
36009;SDS011;22076;52.182;5.404;2022-12-29T10:34:13;10.82;;;1.77;;
36009;SDS011;22076;52.182;5.404;2022-12-29T10:36:44;8.20;;;2.05;;
36009;SDS011;22076;52.182;5.404;2022-12-29T10:39:14;6.50;;;1.98;;
36009;SDS011;22076;52.182;5.404;2022-12-29T10:41:44;9.35;;;1.77;;
36009;SDS011;22076;52.182;5.404;2022-12-29T10:44:14;10.50;;;2.40;;
36009;SDS011;22076;52.182;5.404;2022-12-29T10:46:42;13.48;;;2.08;;
36009;SDS011;22076;52.182;5.404;2022-12-29T10:49:12;7.90;;;2.03;;
36009;SDS011;22076;52.182;5.404;2022-12-29T10:51:41;10.45;;;2.50;;
36009;SDS011;22076;52.182;5.404;2022-12-29T10:54:11;11.07;;;2.17;;
36009;SDS011;22076;52.182;5.404;2022-12-29T10:56:42;7.60;;;2.38;;
36009;SDS011;22076;52.182;5.404;2022-12-29T10:59:12;15.68;;;3.05;;
36009;SDS011;22076;52.182;5.404;2022-12-29T11:01:45;20.05;;;2.95;;
36009;SDS011;22076;52.182;5.404;2022-12-29T11:04:24;12.38;;;2.25;;
36009;SDS011;22076;52.182;5.404;2022-12-29T11:06:58;12.85;;;2.40;;
36009;SDS011;22076;52.182;5.404;2022-12-29T11:09:27;15.13;;;3.22;;
36009;SDS011;22076;52.182;5.404;2022-12-29T11:11:55;14.30;;;2.92;;
36009;SDS011;22076;52.182;5.404;2022-12-29T11:14:29;13.30;;;3.50;;
36009;SDS011;22076;52.182;5.404;2022-12-29T11:16:57;10.80;;;2.85;;
36009;SDS011;22076;52.182;5.404;2022-12-29T11:19:25;19.05;;;3.83;;
36009;SDS011;22076;52.182;5.404;2022-12-29T11:21:53;18.55;;;3.65;;
36009;SDS011;22076;52.182;5.404;2022-12-29T11:24:23;11.35;;;2.47;;
36009;SDS011;22076;52.182;5.404;2022-12-29T11:26:51;15.98;;;3.78;;
36009;SDS011;22076;52.182;5.404;2022-12-29T11:29:26;19.48;;;4.28;;
36009;SDS011;22076;52.182;5.404;2022-12-29T11:31:54;17.05;;;3.03;;
36009;SDS011;22076;52.182;5.404;2022-12-29T11:34:22;17.15;;;3.10;;
36009;SDS011;22076;52.182;5.404;2022-12-29T11:36:51;15.00;;;3.58;;
36009;SDS011;22076;52.182;5.404;2022-12-29T11:39:26;19.55;;;4.00;;
36009;SDS011;22076;52.182;5.404;2022-12-29T11:41:55;20.17;;;3.92;;
36009;SDS011;22076;52.182;5.404;2022-12-29T11:44:22;16.23;;;3.55;;
36009;SDS011;22076;52.182;5.404;2022-12-29T11:46:49;22.98;;;4.15;;
36009;SDS011;22076;52.182;5.404;2022-12-29T11:49:19;24.83;;;4.22;;
36009;SDS011;22076;52.182;5.404;2022-12-29T11:51:47;12.23;;;2.75;;
36009;SDS011;22076;52.182;5.404;2022-12-29T11:54:17;12.60;;;3.30;;
36009;SDS011;22076;52.182;5.404;2022-12-29T11:56:47;25.50;;;4.57;;
36009;SDS011;22076;52.182;5.404;2022-12-29T11:59:36;17.60;;;3.58;;
36009;SDS011;22076;52.182;5.404;2022-12-29T12:02:19;18.85;;;3.30;;
36009;SDS011;22076;52.182;5.404;2022-12-29T12:04:54;18.63;;;3.75;;
36009;SDS011;22076;52.182;5.404;2022-12-29T12:07:28;32.95;;;4.38;;
36009;SDS011;22076;52.182;5.404;2022-12-29T12:10:01;16.25;;;3.33;;
36009;SDS011;22076;52.182;5.404;2022-12-29T12:12:32;17.73;;;3.67;;
36009;SDS011;22076;52.182;5.404;2022-12-29T12:15:01;21.50;;;4.30;;
36009;SDS011;22076;52.182;5.404;2022-12-29T12:17:29;22.70;;;3.78;;
36009;SDS011;22076;52.182;5.404;2022-12-29T12:20:04;14.00;;;3.88;;
36009;SDS011;22076;52.182;5.404;2022-12-29T12:22:41;20.98;;;4.55;;
36009;SDS011;22076;52.182;5.404;2022-12-29T12:25:11;15.40;;;3.20;;
36009;SDS011;22076;52.182;5.404;2022-12-29T12:27:42;25.08;;;4.25;;
36009;SDS011;22076;52.182;5.404;2022-12-29T12:30:11;25.90;;;3.85;;
36009;SDS011;22076;52.182;5.404;2022-12-29T12:32:42;10.90;;;3.50;;
36009;SDS011;22076;52.182;5.404;2022-12-29T12:35:11;18.80;;;3.72;;
36009;SDS011;22076;52.182;5.404;2022-12-29T12:37:42;14.73;;;3.17;;
36009;SDS011;22076;52.182;5.404;2022-12-29T12:40:25;22.33;;;3.63;;
36009;SDS011;22076;52.182;5.404;2022-12-29T12:43:03;18.88;;;4.13;;
36009;SDS011;22076;52.182;5.404;2022-12-29T12:45:40;17.77;;;4.18;;
36009;SDS011;22076;52.182;5.404;2022-12-29T12:48:20;19.98;;;4.35;;
36009;SDS011;22076;52.182;5.404;2022-12-29T12:50:59;16.30;;;4.03;;
36009;SDS011;22076;52.182;5.404;2022-12-29T12:53:32;22.00;;;4.10;;
36009;SDS011;22076;52.182;5.404;2022-12-29T12:56:08;29.23;;;5.40;;
36009;SDS011;22076;52.182;5.404;2022-12-29T12:58:46;28.98;;;4.78;;
36009;SDS011;22076;52.182;5.404;2022-12-29T13:01:18;14.98;;;4.00;;
36009;SDS011;22076;52.182;5.404;2022-12-29T13:03:56;25.35;;;4.68;;
36009;SDS011;22076;52.182;5.404;2022-12-29T13:06:33;31.60;;;4.75;;
36009;SDS011;22076;52.182;5.404;2022-12-29T13:09:14;18.80;;;3.92;;
36009;SDS011;22076;52.182;5.404;2022-12-29T13:11:55;25.35;;;4.13;;
36009;SDS011;22076;52.182;5.404;2022-12-29T13:14:32;21.08;;;4.15;;
36009;SDS011;22076;52.182;5.404;2022-12-29T13:17:07;17.48;;;3.28;;
36009;SDS011;22076;52.182;5.404;2022-12-29T13:19:40;27.30;;;3.58;;
36009;SDS011;22076;52.182;5.404;2022-12-29T13:22:08;16.42;;;3.28;;
36009;SDS011;22076;52.182;5.404;2022-12-29T13:24:45;24.48;;;3.88;;
36009;SDS011;22076;52.182;5.404;2022-12-29T13:27:16;13.90;;;3.15;;
36009;SDS011;22076;52.182;5.404;2022-12-29T13:29:49;14.93;;;3.17;;
36009;SDS011;22076;52.182;5.404;2022-12-29T13:32:21;16.13;;;2.65;;
36009;SDS011;22076;52.182;5.404;2022-12-29T13:34:54;21.63;;;3.70;;
36009;SDS011;22076;52.182;5.404;2022-12-29T13:37:26;13.30;;;3.47;;
36009;SDS011;22076;52.182;5.404;2022-12-29T13:39:54;20.50;;;3.60;;
36009;SDS011;22076;52.182;5.404;2022-12-29T13:42:22;23.23;;;3.60;;
36009;SDS011;22076;52.182;5.404;2022-12-29T13:44:53;20.55;;;4.15;;
36009;SDS011;22076;52.182;5.404;2022-12-29T13:47:21;11.23;;;3.33;;
36009;SDS011;22076;52.182;5.404;2022-12-29T13:49:52;17.30;;;3.42;;
36009;SDS011;22076;52.182;5.404;2022-12-29T13:52:21;15.95;;;3.83;;
36009;SDS011;22076;52.182;5.404;2022-12-29T13:54:55;12.80;;;3.28;;
36009;SDS011;22076;52.182;5.404;2022-12-29T13:57:31;18.15;;;3.85;;
36009;SDS011;22076;52.182;5.404;2022-12-29T14:00:07;17.00;;;3.45;;
36009;SDS011;22076;52.182;5.404;2022-12-29T14:02:42;14.10;;;2.67;;
36009;SDS011;22076;52.182;5.404;2022-12-29T14:05:27;14.70;;;3.75;;
36009;SDS011;22076;52.182;5.404;2022-12-29T14:07:59;23.08;;;4.32;;
36009;SDS011;22076;52.182;5.404;2022-12-29T14:10:27;16.00;;;4.13;;
36009;SDS011;22076;52.182;5.404;2022-12-29T14:12:59;20.95;;;3.88;;
36009;SDS011;22076;52.182;5.404;2022-12-29T14:18:00;13.95;;;3.60;;
36009;SDS011;22076;52.182;5.404;2022-12-29T14:20:30;9.15;;;3.33;;
36009;SDS011;22076;52.182;5.404;2022-12-29T14:22:58;14.52;;;3.38;;
36009;SDS011;22076;52.182;5.404;2022-12-29T14:28:25;16.38;;;2.83;;
36009;SDS011;22076;52.182;5.404;2022-12-29T14:30:54;17.50;;;3.33;;
36009;SDS011;22076;52.182;5.404;2022-12-29T14:33:22;12.10;;;2.95;;
36009;SDS011;22076;52.182;5.404;2022-12-29T14:35:52;10.35;;;2.25;;
36009;SDS011;22076;52.182;5.404;2022-12-29T14:38:20;6.43;;;2.40;;
36009;SDS011;22076;52.182;5.404;2022-12-29T14:43:51;6.40;;;2.03;;
36009;SDS011;22076;52.182;5.404;2022-12-29T14:46:21;7.72;;;2.45;;
36009;SDS011;22076;52.182;5.404;2022-12-29T14:48:52;9.32;;;2.25;;
36009;SDS011;22076;52.182;5.404;2022-12-29T14:51:27;7.72;;;2.53;;
36009;SDS011;22076;52.182;5.404;2022-12-29T14:53:57;5.53;;;1.70;;
36009;SDS011;22076;52.182;5.404;2022-12-29T14:56:24;4.18;;;1.92;;
36009;SDS011;22076;52.182;5.404;2022-12-29T14:58:52;7.70;;;2.05;;
36009;SDS011;22076;52.182;5.404;2022-12-29T15:01:26;6.30;;;1.85;;
36009;SDS011;22076;52.182;5.404;2022-12-29T15:03:56;8.00;;;2.08;;
36009;SDS011;22076;52.182;5.404;2022-12-29T15:06:24;8.77;;;2.65;;
36009;SDS011;22076;52.182;5.404;2022-12-29T15:08:54;13.25;;;3.20;;
36009;SDS011;22076;52.182;5.404;2022-12-29T15:11:22;10.45;;;3.50;;